Time;durP1;ratioP1;P1;durP2;ratioP2;P2;SDS_P1;SDS_P2;PMS_P1;PMS_P2;Temp;Humidity;BMP_temperature;BMP_pressure;BME280_temperature;BME280_humidity;BME280_pressure;Samples;Min_cycle;Max_cycle;Signal;HPM_P1;HPM_P2
2022/07/28 00:02:20;;;;;;;;;;;;;;;16.56;100.00;99403.84;1679171;85;20088;-72
2022/07/28 00:04:49;;;;;;;;;;;;;;;16.51;100.00;99397.98;1679163;85;21086;-73
2022/07/28 00:07:17;;;;;;;;;;;;;;;16.48;100.00;99409.20;1679032;85;20188;-73
2022/07/28 00:09:43;;;;;;;;;;;;;;;16.47;100.00;99413.14;1679089;85;20136;-72
2022/07/28 00:12:10;;;;;;;;;;;;;;;16.44;100.00;99420.78;1679185;85;20585;-73
2022/07/28 00:14:38;;;;;;;;;;;;;;;16.40;100.00;99424.05;1679244;85;20148;-74
2022/07/28 00:17:04;;;;;;;;;;;;;;;16.37;100.00;99428.11;1679500;85;21099;-74
2022/07/28 00:19:31;;;;;;;;;;;;;;;16.35;100.00;99439.55;1679058;85;20431;-74
2022/07/28 00:21:58;;;;;;;;;;;;;;;16.34;100.00;99437.94;1678160;85;20153;-73
2022/07/28 00:24:25;;;;;;;;;;;;;;;16.35;100.00;99437.36;1686273;84;20074;-72
2022/07/28 00:26:51;;;;;;;;;;;;;;;16.35;100.00;99437.36;1721052;83;20437;-72
2022/07/28 00:29:18;;;;;;;;;;;;;;;16.37;100.00;99437.80;1721105;83;21128;-72
2022/07/28 00:31:44;;;;;;;;;;;;;;;16.38;100.00;99435.26;1720971;83;20095;-72
2022/07/28 00:34:11;;;;;;;;;;;;;;;16.38;100.00;99437.45;1720977;83;20160;-72
2022/07/28 00:36:37;;;;;;;;;;;;;;;16.39;100.00;99439.05;1721068;83;20145;-72
2022/07/28 00:39:04;;;;;;;;;;;;;;;16.40;100.00;99421.85;1721055;83;20123;-72
2022/07/28 00:41:31;;;;;;;;;;;;;;;16.43;100.00;99422.52;1721053;83;21156;-72
2022/07/28 00:43:57;;;;;;;;;;;;;;;16.44;100.00;99419.98;1720962;83;20083;-72
2022/07/28 00:46:24;;;;;;;;;;;;;;;16.45;100.00;99407.73;1721318;83;20107;-72
2022/07/28 00:48:52;;;;;;;;;;;;;;;16.44;100.00;99410.28;1720935;83;20750;-73
2022/07/28 00:51:23;;;;;;;;;;;;;;;16.44;100.00;99412.47;1721105;83;20083;-73
2022/07/28 00:53:50;;;;;;;;;;;;;;;16.41;100.00;99412.38;1721339;83;21760;-73
2022/07/28 00:56:17;;;;;;;;;;;;;;;16.37;100.00;99415.06;1720970;83;20115;-73
2022/07/28 00:58:44;;;;;;;;;;;;;;;16.35;100.00;99414.61;1721038;83;20123;-72
2022/07/28 01:01:10;;;;;;;;;;;;;;;16.31;100.00;99419.84;1721001;83;20080;-73
2022/07/28 01:03:38;;;;;;;;;;;;;;;16.26;100.00;99419.52;1721026;83;20478;-73
2022/07/28 01:06:09;;;;;;;;;;;;;;;16.23;100.00;99416.08;1721283;83;21135;-73
2022/07/28 01:08:48;;;;;;;;;;;;;;;16.19;100.00;99419.34;1720183;83;20136;-73
2022/07/28 01:11:21;;;;;;;;;;;;;;;16.16;100.00;99425.04;1721080;83;20107;-73
2022/07/28 01:14:07;;;;;;;;;;;;;;;16.13;100.00;99419.41;1697814;83;20179;-73
2022/07/28 01:16:36;;;;;;;;;;;;;;;16.10;100.00;99419.53;1721315;83;20083;-73
2022/07/28 01:19:12;;;;;;;;;;;;;;;16.08;100.00;99421.85;1720967;83;20593;-74
2022/07/28 01:21:39;;;;;;;;;;;;;;;16.05;100.00;99427.30;1720633;82;20443;-74
2022/07/28 01:24:18;;;;;;;;;;;;;;;16.00;100.00;99423.41;1720971;83;20083;-74
2022/07/28 01:26:53;;;;;;;;;;;;;;;15.96;100.00;99418.34;1720789;83;20075;-74
2022/07/28 01:29:26;;;;;;;;;;;;;;;15.97;100.00;99411.66;1700909;83;20430;-73
2022/07/28 01:31:59;;;;;;;;;;;;;;;15.99;100.00;99409.34;1721382;83;21135;-73
2022/07/28 01:34:29;;;;;;;;;;;;;;;16.00;100.00;99410.36;1720993;83;20124;-73
2022/07/28 01:36:58;;;;;;;;;;;;;;;16.03;100.00;99410.23;1720992;82;20083;-73
2022/07/28 01:39:27;;;;;;;;;;;;;;;16.02;100.00;99404.47;1721064;83;20108;-73
2022/07/28 01:41:55;;;;;;;;;;;;;;;16.01;100.00;99417.52;1721004;83;20123;-73
2022/07/28 01:44:23;;;;;;;;;;;;;;;15.98;100.00;99417.41;1720998;83;39167;-73
2022/07/28 01:46:50;;;;;;;;;;;;;;;15.95;100.00;99421.70;1720950;83;20119;-73
2022/07/28 01:49:17;;;;;;;;;;;;;;;15.98;100.00;99424.34;1720978;83;20092;-74
2022/07/28 01:51:44;;;;;;;;;;;;;;;15.99;100.00;99426.75;1700775;83;20671;-74
2022/07/28 01:54:10;;;;;;;;;;;;;;;16.00;100.00;99428.36;1720995;83;20120;-74
2022/07/28 01:56:37;;;;;;;;;;;;;;;16.02;100.00;99430.20;1721041;83;21618;-74
2022/07/28 01:59:05;;;;;;;;;;;;;;;16.03;100.00;99435.95;1720675;83;20454;-74
2022/07/28 02:01:35;;;;;;;;;;;;;;;16.03;100.00;99436.53;1720783;83;20454;-74
2022/07/28 02:04:02;;;;;;;;;;;;;;;16.03;100.00;99440.69;1721552;83;20108;-74
2022/07/28 02:06:29;;;;;;;;;;;;;;;16.02;100.00;99447.39;1724903;83;20071;-74
2022/07/28 02:08:56;;;;;;;;;;;;;;;16.02;100.00;99450.96;1721137;83;21825;-74
2022/07/28 02:11:41;;;;;;;;;;;;;;;16.01;100.00;99452.70;1720784;83;20119;-74
2022/07/28 02:14:11;;;;;;;;;;;;;;;16.01;100.00;99459.04;1704034;83;20171;-73
2022/07/28 02:16:42;;;;;;;;;;;;;;;16.02;100.00;99459.27;1721089;83;20095;-72
2022/07/28 02:19:08;;;;;;;;;;;;;;;16.00;100.00;99461.59;1700909;83;20091;-72
2022/07/28 02:21:35;;;;;;;;;;;;;;;15.97;100.00;99458.72;1721188;83;21967;-73
2022/07/28 02:24:02;;;;;;;;;;;;;;;15.92;100.00;99459.77;1711677;82;20088;-72
2022/07/28 02:26:31;;;;;;;;;;;;;;;15.89;100.00;99461.87;1711151;84;20100;-73
2022/07/28 02:29:00;;;;;;;;;;;;;;;15.84;100.00;99447.70;1711198;84;20995;-73
2022/07/28 02:31:28;;;;;;;;;;;;;;;15.81;100.00;99448.41;1711258;84;20131;-73
2022/07/28 02:33:57;;;;;;;;;;;;;;;15.77;100.00;99440.58;1711088;84;21164;-74
2022/07/28 02:36:33;;;;;;;;;;;;;;;15.73;100.00;99438.87;1711290;84;20123;-74
2022/07/28 02:39:06;;;;;;;;;;;;;;;15.70;100.00;99437.61;1707367;83;20144;-73
2022/07/28 02:41:39;;;;;;;;;;;;;;;15.65;100.00;99437.86;1722252;83;20431;-73
2022/07/28 02:44:10;;;;;;;;;;;;;;;15.60;100.00;99445.64;1711205;84;20116;-73
2022/07/28 02:46:47;;;;;;;;;;;;;;;15.55;100.00;99450.81;1711297;84;21204;-73
2022/07/28 02:49:26;;;;;;;;;;;;;;;15.48;100.00;99443.69;1710533;83;20095;-73
2022/07/28 02:51:52;;;;;;;;;;;;;;;15.41;100.00;99431.83;1711375;84;20151;-73
2022/07/28 02:54:21;;;;;;;;;;;;;;;15.40;100.00;99444.63;1711211;84;20092;-73
2022/07/28 02:56:59;;;;;;;;;;;;;;;15.39;100.00;99446.59;1710808;83;20450;-72
2022/07/28 02:59:23;;;;;;;;;;;;;;;15.37;100.00;99449.48;1710753;83;21174;-73
2022/07/28 03:01:57;;;;;;;;;;;;;;;15.34;100.00;99452.36;1710785;83;20160;-72
2022/07/28 03:07:11;;;;;;;;;;;;;;;15.27;100.00;99462.41;1710795;83;20150;-73
2022/07/28 03:09:45;;;;;;;;;;;;;;;15.23;100.00;99462.88;1722160;83;20141;-72
2022/07/28 03:12:10;;;;;;;;;;;;;;;15.22;100.00;99464.02;1710966;83;21755;-72
2022/07/28 03:14:42;;;;;;;;;;;;;;;15.22;100.00;99469.55;1698471;84;20092;-73
2022/07/28 03:17:10;;;;;;;;;;;;;;;15.26;100.00;99467.70;1722298;83;20116;-73
2022/07/28 03:19:38;;;;;;;;;;;;;;;15.30;100.00;99466.66;1710844;83;20172;-73
2022/07/28 03:22:05;;;;;;;;;;;;;;;15.33;100.00;99467.92;1697003;84;20132;-73
2022/07/28 03:24:36;;;;;;;;;;;;;;;15.37;100.00;99468.84;1693024;83;21164;-73
2022/07/28 03:27:27;;;;;;;;;;;;;;;15.40;100.00;99467.56;1720951;83;20123;-73
2022/07/28 03:30:07;;;;;;;;;;;;;;;15.44;100.00;99472.63;1724254;83;20100;-73
2022/07/28 03:32:46;;;;;;;;;;;;;;;15.52;100.00;99470.88;1721048;83;20684;-73
2022/07/28 03:35:14;;;;;;;;;;;;;;;15.64;100.00;99474.19;1720598;83;20115;-73
2022/07/28 03:37:55;;;;;;;;;;;;;;;15.76;100.00;99471.38;1720733;83;21151;-72
2022/07/28 03:40:30;;;;;;;;;;;;;;;15.87;100.00;99470.30;1724194;83;20111;-73
2022/07/28 03:43:06;;;;;;;;;;;;;;;15.97;100.00;99475.33;1721262;83;20115;-72
2022/07/28 03:45:33;;;;;;;;;;;;;;;16.04;100.00;99479.68;1721095;83;20121;-71
2022/07/28 03:48:05;;;;;;;;;;;;;;;16.11;100.00;99480.68;1721015;83;20116;-72
2022/07/28 03:50:31;;;;;;;;;;;;;;;16.19;100.00;99485.80;1720677;83;21680;-72
2022/07/28 03:53:14;;;;;;;;;;;;;;;16.27;100.00;99487.61;1715845;83;20107;-73
2022/07/28 03:55:29;;;;;;;;;;;;;;;16.32;100.00;99488.73;1702952;83;20112;-73
2022/07/28 03:57:57;;;;;;;;;;;;;;;16.38;100.00;99481.77;1720909;83;20087;-73
2022/07/28 04:00:25;;;;;;;;;;;;;;;16.47;100.00;99492.11;1720290;83;20183;-74
2022/07/28 04:02:59;;;;;;;;;;;;;;;16.54;100.00;99488.72;1693240;83;21265;-73
2022/07/28 04:05:31;;;;;;;;;;;;;;;16.56;100.00;99483.63;1671240;84;20222;-73
2022/07/28 04:07:58;;;;;;;;;;;;;;;16.56;100.00;99489.75;1672927;85;20088;-72
2022/07/28 04:10:34;;;;;;;;;;;;;;;16.55;100.00;99488.13;1672954;86;20679;-72
2022/07/28 04:13:02;;;;;;;;;;;;;;;16.60;100.00;99490.64;1651573;85;20120;-72
2022/07/28 04:15:35;;;;;;;;;;;;;;;16.60;100.00;99494.22;1672856;85;21176;-72
2022/07/28 04:18:08;;;;;;;;;;;;;;;16.61;100.00;99482.55;1672480;85;20104;-73
2022/07/28 04:20:37;;;;;;;;;;;;;;;16.61;100.00;99487.52;1671958;86;20194;-73
2022/07/28 04:23:04;;;;;;;;;;;;;;;16.60;100.00;99489.25;1672087;85;20539;-72
2022/07/28 04:25:31;;;;;;;;;;;;;;;16.58;100.00;99488.80;1672622;86;20096;-72
2022/07/28 04:28:04;;;;;;;;;;;;;;;16.54;100.00;99497.03;1685133;84;21518;-72
2022/07/28 04:30:39;;;;;;;;;;;;;;;16.54;100.00;99501.77;1684980;85;20426;-73
2022/07/28 04:33:06;;;;;;;;;;;;;;;16.50;100.00;99499.70;1684682;85;20100;-73
2022/07/28 04:35:33;;;;;;;;;;;;;;;16.51;100.00;99509.62;1684902;85;20115;-73
2022/07/28 04:38:02;;;;;;;;;;;;;;;16.49;100.00;99504.22;1687679;82;20093;-72
2022/07/28 04:40:29;;;;;;;;;;;;;;;16.50;100.00;99505.83;1692542;84;21189;-73
2022/07/28 04:42:57;;;;;;;;;;;;;;;16.55;100.00;99497.25;1673146;86;20111;-72
2022/07/28 04:45:33;;;;;;;;;;;;;;;16.68;100.00;99495.23;1651907;86;20440;-74
2022/07/28 04:48:01;;;;;;;;;;;;;;;16.76;100.00;99495.61;1671695;86;20436;-75
2022/07/28 04:50:39;;;;;;;;;;;;;;;16.86;100.00;99505.36;1672795;85;20085;-72
2022/07/28 04:53:11;;;;;;;;;;;;;;;16.96;100.00;99504.81;1672539;85;20088;-73
2022/07/28 04:55:42;;;;;;;;;;;;;;;17.07;100.00;99503.91;1672773;85;20116;-72
2022/07/28 04:58:08;;;;;;;;;;;;;;;17.19;100.00;99506.36;1672343;86;20104;-72
2022/07/28 05:00:38;;;;;;;;;;;;;;;17.27;100.00;99506.74;1652099;86;20448;-72
2022/07/28 05:03:07;;;;;;;;;;;;;;;17.36;100.00;99509.52;1672591;86;20162;-72
2022/07/28 05:05:40;;;;;;;;;;;;;;;17.48;100.00;99508.59;1672694;86;21051;-72
2022/07/28 05:08:08;;;;;;;;;;;;;;;17.60;100.00;99509.05;1652423;86;20108;-72
2022/07/28 05:10:40;;;;;;;;;;;;;;;17.69;100.00;99513.25;1695288;84;20102;-72
2022/07/28 05:13:10;;;;;;;;;;;;;;;17.81;100.00;99517.86;1697124;84;20126;-72
2022/07/28 05:15:45;;;;;;;;;;;;;;;17.96;100.00;99523.91;1679688;84;20132;-72
2022/07/28 05:18:17;;;;;;;;;;;;;;;18.10;100.00;99524.20;1671411;85;20290;-82
2022/07/28 05:20:45;;;;;;;;;;;;;;;18.25;100.00;99525.28;1672775;84;20141;-81
2022/07/28 05:23:16;;;;;;;;;;;;;;;18.43;100.00;99531.19;1675592;84;20137;-78
2022/07/28 05:25:50;;;;;;;;;;;;;;;18.58;100.00;99533.03;1677078;84;20145;-74
2022/07/28 05:28:18;;;;;;;;;;;;;;;18.71;100.00;99528.13;1700862;84;20126;-79
2022/07/28 05:30:55;;;;;;;;;;;;;;;18.83;100.00;99536.87;1695475;84;21236;-86
2022/07/28 05:33:21;;;;;;;;;;;;;;;18.90;100.00;99528.06;1672126;86;20178;-85
2022/07/28 05:35:56;;;;;;;;;;;;;;;18.96;100.00;99536.31;1672786;85;20147;-73
2022/07/28 05:38:23;;;;;;;;;;;;;;;19.05;100.00;99538.84;1672822;86;20080;-73
2022/07/28 05:41:06;;;;;;;;;;;;;;;19.14;100.00;99540.16;1673155;85;20088;-75
2022/07/28 05:43:25;;;;;;;;;;;;;;;19.24;100.00;99544.88;1665746;85;20855;-85
2022/07/28 05:45:51;;;;;;;;;;;;;;;19.33;100.00;99548.20;1672196;85;20431;-75
2022/07/28 05:48:23;;;;;;;;;;;;;;;19.44;100.00;99551.96;1672571;85;20096;-75
2022/07/28 05:50:53;;;;;;;;;;;;;;;19.58;100.00;99548.02;1671537;85;20100;-74
2022/07/28 05:53:22;;;;;;;;;;;;;;;19.75;98.95;99545.25;1672856;85;20121;-74
2022/07/28 05:55:53;;;;;;;;;;;;;;;19.85;92.70;99549.36;1673132;86;21785;-73
2022/07/28 05:58:29;;;;;;;;;;;;;;;19.85;91.67;99551.55;1672070;86;20124;-73
2022/07/28 06:00:59;;;;;;;;;;;;;;;19.88;91.28;99550.80;1672316;86;20093;-72
2022/07/28 06:03:33;;;;;;;;;;;;;;;19.97;92.84;99558.28;1673174;85;20120;-73
2022/07/28 06:06:05;;;;;;;;;;;;;;;20.08;90.37;99554.25;1674523;84;20076;-73
2022/07/28 06:08:36;;;;;;;;;;;;;;;20.17;88.67;99566.50;1684882;85;21153;-73
2022/07/28 06:11:15;;;;;;;;;;;;;;;20.24;87.49;99567.95;1685469;85;20136;-72
2022/07/28 06:13:45;;;;;;;;;;;;;;;20.31;84.57;99562.45;1685247;85;20475;-73
2022/07/28 06:16:15;;;;;;;;;;;;;;;20.39;84.04;99562.78;1685525;85;20442;-72
2022/07/28 06:18:56;;;;;;;;;;;;;;;20.48;83.67;99566.67;1663446;84;20126;-72
2022/07/28 06:21:11;;;;;;;;;;;;;;;20.58;81.08;99564.59;1674363;84;21269;-73
2022/07/28 06:23:51;;;;;;;;;;;;;;;20.68;79.81;99564.70;1671428;85;20128;-73
2022/07/28 06:26:06;;;;;;;;;;;;;;;20.78;78.21;99563.20;1669871;85;20117;-72
2022/07/28 06:28:33;;;;;;;;;;;;;;;20.86;77.75;99561.26;1652462;86;20101;-72
2022/07/28 06:30:59;;;;;;;;;;;;;;;20.97;75.88;99562.96;1679912;84;20140;-73
2022/07/28 06:33:27;;;;;;;;;;;;;;;21.07;73.14;99566.44;1663123;85;20120;-73
2022/07/28 06:35:58;;;;;;;;;;;;;;;21.10;69.90;99567.06;1685115;85;20087;-72
2022/07/28 06:38:30;;;;;;;;;;;;;;;21.13;70.20;99573.06;1685311;84;20080;-71
2022/07/28 06:41:05;;;;;;;;;;;;;;;21.19;71.43;99572.33;1685329;85;20122;-72
2022/07/28 06:43:34;;;;;;;;;;;;;;;21.32;70.08;99571.46;1684571;85;20130;-71
2022/07/28 06:46:05;;;;;;;;;;;;;;;21.42;66.93;99571.52;1685607;85;21089;-71
2022/07/28 06:48:42;;;;;;;;;;;;;;;21.50;65.51;99564.58;1685541;85;20642;-72
2022/07/28 06:51:11;;;;;;;;;;;;;;;21.57;65.39;99569.63;1698260;83;20075;-71
2022/07/28 06:53:38;;;;;;;;;;;;;;;21.65;65.12;99574.07;1705351;83;20141;-73
2022/07/28 06:56:07;;;;;;;;;;;;;;;21.73;65.43;99571.52;1694176;83;20464;-80
2022/07/28 06:58:39;;;;;;;;;;;;;;;21.82;64.02;99576.77;1675811;84;22093;-73
2022/07/28 07:01:08;;;;;;;;;;;;;;;21.93;64.12;99566.45;1700839;84;20149;-83
2022/07/28 07:03:35;;;;;;;;;;;;;;;22.05;63.47;99570.91;1682040;84;20090;-84
2022/07/28 07:06:17;;;;;;;;;;;;;;;22.17;61.52;99561.38;1690704;84;20090;-84
2022/07/28 07:08:35;;;;;;;;;;;;;;;22.25;59.30;99567.20;1686733;84;20129;-81
2022/07/28 07:11:01;;;;;;;;;;;;;;;22.25;58.89;99572.20;1694689;84;21118;-84
2022/07/28 07:13:36;;;;;;;;;;;;;;;22.27;58.63;99572.60;1700704;83;20184;-88
2022/07/28 07:16:02;;;;;;;;;;;;;;;22.36;59.10;99577.83;1700288;84;20126;-86
2022/07/28 07:18:29;;;;;;;;;;;;;;;22.45;55.98;99578.86;1701165;83;20610;-88
2022/07/28 07:21:00;;;;;;;;;;;;;;;22.46;55.36;99577.06;1680859;84;20090;-82
2022/07/28 07:23:34;;;;;;;;;;;;;;;22.47;56.56;99576.47;1694842;83;21739;-86
2022/07/28 07:26:03;;;;;;;;;;;;;;;22.48;54.72;99569.68;1720218;83;20148;-83
2022/07/28 07:28:33;;;;;;;;;;;;;;;22.47;54.84;99577.87;1733677;82;20118;-75
2022/07/28 07:31:04;;;;;;;;;;;;;;;22.43;56.12;99575.66;1733493;82;20176;-73
2022/07/28 07:33:33;;;;;;;;;;;;;;;22.49;57.16;99577.67;1733758;82;20099;-73
2022/07/28 07:35:59;;;;;;;;;;;;;;;22.64;57.30;99576.48;1728896;83;21063;-75
2022/07/28 07:38:30;;;;;;;;;;;;;;;22.79;56.09;99581.55;1699262;83;20102;-74
2022/07/28 07:40:59;;;;;;;;;;;;;;;22.93;54.96;99577.98;1714045;83;20132;-81
2022/07/28 07:43:32;;;;;;;;;;;;;;;23.08;55.12;99588.59;1714757;83;20383;-74
2022/07/28 07:45:57;;;;;;;;;;;;;;;23.24;54.32;99587.57;1718283;83;20085;-75
2022/07/28 07:48:35;;;;;;;;;;;;;;;23.37;53.38;99590.97;1718745;82;20443;-76
2022/07/28 07:51:01;;;;;;;;;;;;;;;23.46;53.44;99586.97;1718020;83;20085;-78
2022/07/28 07:53:39;;;;;;;;;;;;;;;23.58;52.44;99595.00;1718993;83;20121;-84
2022/07/28 07:56:10;;;;;;;;;;;;;;;23.68;53.35;99594.19;1718356;82;20686;-86
2022/07/28 07:58:34;;;;;;;;;;;;;;;23.85;54.25;99592.52;1690081;84;20075;-82
2022/07/28 08:01:03;;;;;;;;;;;;;;;23.96;53.51;99599.70;1689846;85;21132;-79
2022/07/28 08:03:29;;;;;;;;;;;;;;;24.00;52.96;99599.09;1689383;85;20095;-82
2022/07/28 08:05:57;;;;;;;;;;;;;;;24.09;53.23;99598.67;1689934;85;20088;-83
2022/07/28 08:08:29;;;;;;;;;;;;;;;24.14;50.63;99596.05;1690028;84;20215;-74
2022/07/28 08:10:57;;;;;;;;;;;;;;;24.03;50.69;99597.48;1689937;84;20147;-74
2022/07/28 08:13:30;;;;;;;;;;;;;;;24.03;53.02;99590.47;1690567;84;21068;-74
2022/07/28 08:15:55;;;;;;;;;;;;;;;24.22;51.19;99601.83;1689560;85;20119;-86
2022/07/28 08:18:29;;;;;;;;;;;;;;;24.54;49.46;99592.68;1702532;83;20471;-83
2022/07/28 08:21:00;;;;;;;;;;;;;;;24.81;50.91;99592.94;1672603;84;20598;-74
2022/07/28 08:23:29;;;;;;;;;;;;;;;25.17;51.06;99601.91;1703797;84;20133;-88
2022/07/28 08:26:05;;;;;;;;;;;;;;;25.49;50.00;99606.45;1690544;83;21238;-75
2022/07/28 08:28:34;;;;;;;;;;;;;;;25.74;47.56;99603.44;1701269;84;20122;-82
2022/07/28 08:31:01;;;;;;;;;;;;;;;25.89;48.03;99604.89;1701253;84;20086;-83
2022/07/28 08:33:29;;;;;;;;;;;;;;;26.16;48.86;99603.56;1701103;84;20153;-81
2022/07/28 08:35:56;;;;;;;;;;;;;;;26.48;46.80;99609.64;1694224;84;20424;-87
2022/07/28 08:38:28;;;;;;;;;;;;;;;26.77;46.66;99614.25;1701124;84;21139;-77
2022/07/28 08:40:56;;;;;;;;;;;;;;;27.08;45.08;99611.42;1701359;84;20102;-78
2022/07/28 08:43:41;;;;;;;;;;;;;;;27.25;44.96;99615.34;1701304;84;20094;-80
2022/07/28 08:46:09;;;;;;;;;;;;;;;27.35;44.11;99614.20;1653323;85;20157;-82
2022/07/28 08:48:39;;;;;;;;;;;;;;;27.51;44.05;99617.15;1673171;86;20149;-86
2022/07/28 08:51:12;;;;;;;;;;;;;;;27.69;43.85;99607.00;1653275;86;21596;-83
2022/07/28 08:53:43;;;;;;;;;;;;;;;27.79;43.51;99608.19;1673208;85;20126;-83
2022/07/28 08:56:18;;;;;;;;;;;;;;;27.90;42.53;99607.38;1671787;85;20077;-82
2022/07/28 08:58:43;;;;;;;;;;;;;;;27.95;41.72;99604.67;1672116;85;20103;-80
2022/07/28 09:01:15;;;;;;;;;;;;;;;28.01;40.78;99609.20;1673242;86;20141;-81
2022/07/28 09:03:39;;;;;;;;;;;;;;;28.08;40.88;99609.86;1704282;83;21576;-80
2022/07/28 09:06:06;;;;;;;;;;;;;;;28.25;41.13;99617.22;1718368;82;20146;-76
2022/07/28 09:08:37;;;;;;;;;;;;;;;28.49;39.55;99619.33;1701017;83;20138;-70
2022/07/28 09:11:07;;;;;;;;;;;;;;;28.56;40.07;99618.38;1701348;84;20713;-71
2022/07/28 09:13:36;;;;;;;;;;;;;;;28.68;37.35;99605.00;1702716;83;20124;-71
2022/07/28 09:16:05;;;;;;;;;;;;;;;28.68;39.61;99620.53;1710181;83;21119;-71
2022/07/28 09:18:35;;;;;;;;;;;;;;;28.75;38.17;99626.03;1676871;84;20417;-79
2022/07/28 09:21:05;;;;;;;;;;;;;;;28.63;38.77;99628.11;1707259;83;20162;-76
2022/07/28 09:23:46;;;;;;;;;;;;;;;28.49;37.85;99617.91;1723485;83;20143;-77
2022/07/28 09:26:13;;;;;;;;;;;;;;;28.48;38.01;99616.32;1725774;82;20115;-77
2022/07/28 09:28:52;;;;;;;;;;;;;;;28.43;39.04;99624.50;1726345;82;21135;-74
2022/07/28 09:31:35;;;;;;;;;;;;;;;28.36;40.29;99623.23;1726048;82;20154;-75
2022/07/28 09:34:09;;;;;;;;;;;;;;;28.35;38.13;99626.67;1725482;82;20481;-74
2022/07/28 09:36:41;;;;;;;;;;;;;;;28.35;40.40;99628.08;1726614;83;20143;-70
2022/07/28 09:39:10;;;;;;;;;;;;;;;28.63;38.58;99618.23;1726158;83;20087;-78
2022/07/28 09:41:54;;;;;;;;;;;;;;;28.78;36.50;99617.30;1725993;82;20098;-81
2022/07/28 09:44:25;;;;;;;;;;;;;;;28.81;36.75;99618.63;1724479;82;20584;-78
2022/07/28 09:46:56;;;;;;;;;;;;;;;28.93;38.51;99615.13;1725117;82;20179;-71
2022/07/28 09:49:42;;;;;;;;;;;;;;;29.05;38.53;99619.30;1725788;83;20135;-71
2022/07/28 09:52:19;;;;;;;;;;;;;;;29.12;37.00;99626.20;1726127;83;20098;-77
2022/07/28 09:54:52;;;;;;;;;;;;;;;29.38;36.72;99617.92;1725471;82;21107;-78
2022/07/28 09:57:40;;;;;;;;;;;;;;;29.42;34.95;99616.62;1723374;82;20095;-80
2022/07/28 10:00:03;;;;;;;;;;;;;;;29.28;35.85;99609.88;1720735;82;20127;-80
2022/07/28 10:02:33;;;;;;;;;;;;;;;29.25;35.91;99616.41;1725758;82;20083;-81
2022/07/28 10:04:59;;;;;;;;;;;;;;;29.25;37.36;99627.72;1725817;82;20119;-78
2022/07/28 10:07:30;;;;;;;;;;;;;;;29.46;36.22;99623.61;1714903;83;20776;-74
2022/07/28 10:09:59;;;;;;;;;;;;;;;29.62;35.60;99624.19;1726092;83;20083;-73
2022/07/28 10:12:30;;;;;;;;;;;;;;;29.61;34.49;99618.36;1726222;82;20449;-73
2022/07/28 10:16:09;;;;;;;;;;;;;;;29.71;33.94;99624.36;1725834;82;20111;-72
2022/07/28 10:17:31;;;;;;;;;;;;;;;29.71;34.12;99619.50;1722582;81;20115;-72
2022/07/28 10:20:06;;;;;;;;;;;;;;;29.68;33.07;99626.66;1725998;83;20111;-73
2022/07/28 10:22:34;;;;;;;;;;;;;;;29.65;34.00;99621.27;1714796;83;20095;-75
2022/07/28 10:25:14;;;;;;;;;;;;;;;29.78;32.46;99628.42;1723561;82;20438;-76
2022/07/28 10:27:43;;;;;;;;;;;;;;;29.85;32.73;99629.02;1720526;83;20147;-72
2022/07/28 10:30:18;;;;;;;;;;;;;;;29.78;31.37;99623.55;1721031;83;20146;-72
2022/07/28 10:32:44;;;;;;;;;;;;;;;29.52;33.20;99629.67;1720301;82;21110;-88
2022/07/28 10:35:17;;;;;;;;;;;;;;;29.39;33.42;99609.00;1699836;83;20123;-84
2022/07/28 10:37:54;;;;;;;;;;;;;;;29.40;33.06;99611.20;1700811;83;20139;-75
2022/07/28 10:40:24;;;;;;;;;;;;;;;29.50;33.48;99618.63;1712749;83;20086;-70
2022/07/28 10:42:57;;;;;;;;;;;;;;;29.63;33.37;99620.13;1692733;83;20104;-71
2022/07/28 10:45:27;;;;;;;;;;;;;;;29.78;31.90;99625.59;1681025;84;21164;-68
2022/07/28 10:47:54;;;;;;;;;;;;;;;29.77;32.12;99624.80;1700485;84;20114;-68
2022/07/28 10:50:28;;;;;;;;;;;;;;;29.65;31.65;99617.02;1686407;84;20112;-75
2022/07/28 10:52:54;;;;;;;;;;;;;;;29.56;32.33;99611.20;1653151;86;20430;-74
2022/07/28 10:55:43;;;;;;;;;;;;;;;29.63;31.98;99617.30;1639196;87;20102;-75
2022/07/28 10:58:41;;;;;;;;;;;;;;;29.76;32.23;99620.37;1666279;84;21153;-71
2022/07/28 11:01:09;;;;;;;;;;;;;;;29.89;33.65;99627.52;1585066;84;20456;-78
2022/07/28 11:03:45;;;;;;;;;;;;;;;30.14;32.05;99611.27;1673544;83;20431;-69
2022/07/28 11:06:33;;;;;;;;;;;;;;;30.22;32.51;99607.80;1690232;84;20393;-69
2022/07/28 11:09:01;;;;;;;;;;;;;;;30.46;33.70;99608.94;1700912;84;20090;-69
2022/07/28 11:11:54;;;;;;;;;;;;;;;30.60;31.87;99601.47;1701035;84;21161;-70
2022/07/28 11:14:34;;;;;;;;;;;;;;;30.51;31.15;99608.39;1700638;84;20086;-69
2022/07/28 11:17:07;;;;;;;;;;;;;;;30.51;29.78;99597.85;1701160;84;20413;-69
2022/07/28 11:19:46;;;;;;;;;;;;;;;30.36;29.31;99611.46;1701171;84;20099;-69
2022/07/28 11:22:26;;;;;;;;;;;;;;;30.31;29.03;99607.14;1701141;83;20167;-72
2022/07/28 11:24:59;;;;;;;;;;;;;;;30.46;29.50;99606.11;1679402;84;20170;-72
2022/07/28 11:27:48;;;;;;;;;;;;;;;30.78;29.80;99607.36;1700364;84;20086;-74
2022/07/28 11:30:34;;;;;;;;;;;;;;;30.92;29.72;99608.17;1679697;84;20086;-76
2022/07/28 11:33:03;;;;;;;;;;;;;;;30.92;29.23;99604.70;1701233;84;20419;-73
2022/07/28 11:35:41;;;;;;;;;;;;;;;30.92;29.85;99601.88;1679294;84;20133;-72
2022/07/28 11:38:09;;;;;;;;;;;;;;;31.16;29.69;99603.16;1701140;84;21468;-72
2022/07/28 11:40:44;;;;;;;;;;;;;;;31.20;29.17;99609.47;1696380;84;20166;-80
2022/07/28 11:43:29;;;;;;;;;;;;;;;31.08;30.67;99604.60;1660194;84;20452;-79
2022/07/28 11:46:05;;;;;;;;;;;;;;;31.13;30.08;99601.23;1701463;84;20613;-77
2022/07/28 11:48:33;;;;;;;;;;;;;;;31.34;29.11;99607.42;1677355;83;20120;-73
2022/07/28 11:51:05;;;;;;;;;;;;;;;31.43;29.89;99602.64;1672942;85;20633;-76
2022/07/28 11:53:51;;;;;;;;;;;;;;;31.53;29.94;99602.91;1667861;84;20177;-77
2022/07/28 11:56:25;;;;;;;;;;;;;;;31.52;28.40;99605.58;1680488;84;20102;-77
2022/07/28 11:59:02;;;;;;;;;;;;;;;31.18;28.83;99602.70;1675058;84;20100;-78
2022/07/28 12:01:34;;;;;;;;;;;;;;;31.00;29.02;99589.69;1672837;85;20132;-70
2022/07/28 12:04:13;;;;;;;;;;;;;;;30.97;29.70;99603.35;1674915;85;20222;-70
2022/07/28 12:06:45;;;;;;;;;;;;;;;31.09;30.13;99606.19;1672889;85;20104;-74
2022/07/28 12:09:13;;;;;;;;;;;;;;;31.29;27.98;99605.16;1672672;86;20173;-75
2022/07/28 12:11:41;;;;;;;;;;;;;;;31.39;28.56;99596.92;1685921;84;20104;-75
2022/07/28 12:14:21;;;;;;;;;;;;;;;31.54;28.33;99590.94;1692049;83;20132;-80
2022/07/28 12:16:49;;;;;;;;;;;;;;;31.71;27.81;99590.19;1688484;83;21788;-79
2022/07/28 12:19:18;;;;;;;;;;;;;;;31.59;27.38;99592.41;1683993;83;20207;-77
2022/07/28 12:21:51;;;;;;;;;;;;;;;31.25;28.06;99597.39;1677769;84;20185;-72
2022/07/28 12:24:33;;;;;;;;;;;;;;;31.13;28.75;99592.72;1700996;83;20143;-73
2022/07/28 12:27:01;;;;;;;;;;;;;;;31.31;28.34;99587.06;1681539;83;20421;-72
2022/07/28 12:29:30;;;;;;;;;;;;;;;31.30;27.56;99594.78;1696132;82;21148;-78
2022/07/28 12:32:01;;;;;;;;;;;;;;;31.08;28.37;99586.17;1682063;84;20117;-77
2022/07/28 12:34:30;;;;;;;;;;;;;;;31.22;29.68;99599.09;1674758;84;20216;-71
2022/07/28 12:37:00;;;;;;;;;;;;;;;31.48;28.29;99602.06;1673049;85;20128;-77
2022/07/28 12:39:31;;;;;;;;;;;;;;;31.55;28.14;99596.78;1698269;84;20200;-71
2022/07/28 12:42:09;;;;;;;;;;;;;;;31.65;28.24;99589.16;1688973;84;21288;-72
2022/07/28 12:44:41;;;;;;;;;;;;;;;31.73;27.64;99575.71;1680504;83;20159;-70
2022/07/28 12:47:14;;;;;;;;;;;;;;;31.63;28.84;99590.23;1706751;83;20123;-70
2022/07/28 12:49:42;;;;;;;;;;;;;;;31.67;28.17;99590.28;1719064;83;20130;-69
2022/07/28 12:52:24;;;;;;;;;;;;;;;31.77;28.64;99579.84;1720609;83;20127;-77
2022/07/28 12:54:52;;;;;;;;;;;;;;;31.96;28.10;99581.55;1719648;82;21221;-77
2022/07/28 12:57:38;;;;;;;;;;;;;;;32.04;28.34;99581.46;1700585;83;20167;-77
2022/07/28 13:00:07;;;;;;;;;;;;;;;32.22;27.65;99582.86;1720454;83;20477;-76
2022/07/28 13:02:35;;;;;;;;;;;;;;;32.17;26.95;99570.05;1720719;83;20111;-75
2022/07/28 13:05:06;;;;;;;;;;;;;;;32.08;29.18;99578.50;1720489;82;20126;-77
2022/07/28 13:07:37;;;;;;;;;;;;;;;32.25;27.99;99567.14;1708868;83;21302;-76